CheckWX is a tool to help pilots better visualize weather data.  It is not intended as a substitute for an official pre-flight weather briefing.

08:06:14 UTC

EBBE TAF
Beauvechain Air Base Airport
Beauvechain, Belgium
TAF EBBE 190541Z 1907/1916 24005KT 9999 FEW015 SCT040 TEMPO 1907/1916 VRB03KT

Mar-19@
07:00 UTC

Mar-19 @ 07:00 UTC

Mar-19@
16:00 UTC

Mar-19 @ 16:00 UTC

TAF EBBE 190541Z 1907/1916 24005KT 9999 FEW015 SCT040
Wind
  • 240° at 5 KTS
Cloud Levels
  • Few at 1,500' AGL
  • Scattered at 4,000' AGL

Mar-19@
07:00 UTC

Mar-19 @ 07:00 UTC

Mar-19@
16:00 UTC

Mar-19 @ 16:00 UTC

TEMPO 1907/1916 VRB03KT

Temporary

Temporary Changes expected for less than half the time period

Wind
  • Variable at 3 KTS